sensor_id;sensor_type;location;lat;lon;timestamp;P1;durP1;ratioP1;P2;durP2;ratioP2
21663;SDS011;10993;52.510;13.456;2023-07-22T00:03:21;15.35;;;8.40;;
21663;SDS011;10993;52.510;13.456;2023-07-22T00:08:23;9.82;;;6.72;;
21663;SDS011;10993;52.510;13.456;2023-07-22T00:13:23;10.70;;;6.50;;
21663;SDS011;10993;52.510;13.456;2023-07-22T00:18:28;10.02;;;6.97;;
21663;SDS011;10993;52.510;13.456;2023-07-22T00:23:28;7.88;;;5.47;;
21663;SDS011;10993;52.510;13.456;2023-07-22T00:28:30;11.18;;;6.25;;
21663;SDS011;10993;52.510;13.456;2023-07-22T00:33:31;6.95;;;5.10;;
21663;SDS011;10993;52.510;13.456;2023-07-22T00:38:32;8.55;;;5.43;;
21663;SDS011;10993;52.510;13.456;2023-07-22T00:43:32;10.15;;;5.85;;
21663;SDS011;10993;52.510;13.456;2023-07-22T00:48:34;9.73;;;5.78;;
21663;SDS011;10993;52.510;13.456;2023-07-22T00:53:34;9.52;;;5.72;;
21663;SDS011;10993;52.510;13.456;2023-07-22T00:58:35;7.40;;;5.55;;
21663;SDS011;10993;52.510;13.456;2023-07-22T01:03:36;7.63;;;5.70;;
21663;SDS011;10993;52.510;13.456;2023-07-22T01:08:37;7.13;;;5.57;;
21663;SDS011;10993;52.510;13.456;2023-07-22T01:13:37;8.27;;;6.13;;
21663;SDS011;10993;52.510;13.456;2023-07-22T01:18:40;11.45;;;7.50;;
21663;SDS011;10993;52.510;13.456;2023-07-22T01:23:41;8.60;;;5.78;;
21663;SDS011;10993;52.510;13.456;2023-07-22T01:28:42;7.47;;;5.65;;
21663;SDS011;10993;52.510;13.456;2023-07-22T01:33:43;7.25;;;5.63;;
21663;SDS011;10993;52.510;13.456;2023-07-22T01:38:45;10.25;;;5.93;;
21663;SDS011;10993;52.510;13.456;2023-07-22T01:43:45;8.32;;;5.40;;
21663;SDS011;10993;52.510;13.456;2023-07-22T01:48:46;6.43;;;5.13;;
21663;SDS011;10993;52.510;13.456;2023-07-22T01:53:47;7.05;;;5.13;;
21663;SDS011;10993;52.510;13.456;2023-07-22T01:58:48;6.47;;;5.07;;
21663;SDS011;10993;52.510;13.456;2023-07-22T02:03:48;7.33;;;5.33;;
21663;SDS011;10993;52.510;13.456;2023-07-22T02:08:50;7.63;;;5.40;;
21663;SDS011;10993;52.510;13.456;2023-07-22T02:13:50;7.38;;;5.53;;
21663;SDS011;10993;52.510;13.456;2023-07-22T02:18:50;8.73;;;5.55;;
21663;SDS011;10993;52.510;13.456;2023-07-22T02:23:52;8.55;;;5.18;;
21663;SDS011;10993;52.510;13.456;2023-07-22T02:28:53;6.85;;;5.20;;
21663;SDS011;10993;52.510;13.456;2023-07-22T02:33:54;8.15;;;4.93;;
21663;SDS011;10993;52.510;13.456;2023-07-22T02:38:56;6.95;;;4.95;;
21663;SDS011;10993;52.510;13.456;2023-07-22T02:43:56;6.93;;;5.07;;
21663;SDS011;10993;52.510;13.456;2023-07-22T02:48:57;6.57;;;4.80;;
21663;SDS011;10993;52.510;13.456;2023-07-22T02:53:59;6.72;;;4.60;;
21663;SDS011;10993;52.510;13.456;2023-07-22T02:58:59;6.22;;;4.28;;
21663;SDS011;10993;52.510;13.456;2023-07-22T03:03:59;6.30;;;4.53;;
21663;SDS011;10993;52.510;13.456;2023-07-22T03:09:01;6.85;;;4.60;;
21663;SDS011;10993;52.510;13.456;2023-07-22T03:14:04;7.22;;;4.40;;
21663;SDS011;10993;52.510;13.456;2023-07-22T03:19:05;5.50;;;4.30;;
21663;SDS011;10993;52.510;13.456;2023-07-22T03:24:06;5.55;;;4.18;;
21663;SDS011;10993;52.510;13.456;2023-07-22T03:29:07;5.10;;;4.03;;
21663;SDS011;10993;52.510;13.456;2023-07-22T03:34:08;5.38;;;4.10;;
21663;SDS011;10993;52.510;13.456;2023-07-22T03:39:09;6.70;;;4.10;;
21663;SDS011;10993;52.510;13.456;2023-07-22T03:44:10;6.07;;;3.80;;
21663;SDS011;10993;52.510;13.456;2023-07-22T03:49:10;6.22;;;4.22;;
21663;SDS011;10993;52.510;13.456;2023-07-22T03:54:12;6.10;;;4.15;;
21663;SDS011;10993;52.510;13.456;2023-07-22T03:59:12;5.10;;;3.72;;
21663;SDS011;10993;52.510;13.456;2023-07-22T04:04:12;7.90;;;3.50;;
21663;SDS011;10993;52.510;13.456;2023-07-22T04:09:14;5.27;;;3.63;;
21663;SDS011;10993;52.510;13.456;2023-07-22T04:14:14;4.35;;;2.90;;
21663;SDS011;10993;52.510;13.456;2023-07-22T04:19:15;3.47;;;2.30;;
21663;SDS011;10993;52.510;13.456;2023-07-22T04:24:18;4.50;;;1.95;;
21663;SDS011;10993;52.510;13.456;2023-07-22T04:29:18;2.72;;;1.80;;
21663;SDS011;10993;52.510;13.456;2023-07-22T04:34:18;3.28;;;1.58;;
21663;SDS011;10993;52.510;13.456;2023-07-22T04:39:20;3.28;;;1.55;;
21663;SDS011;10993;52.510;13.456;2023-07-22T04:44:20;4.15;;;1.73;;
21663;SDS011;10993;52.510;13.456;2023-07-22T04:49:21;2.47;;;1.65;;
21663;SDS011;10993;52.510;13.456;2023-07-22T04:54:23;3.72;;;1.88;;
21663;SDS011;10993;52.510;13.456;2023-07-22T04:59:23;4.53;;;1.73;;
21663;SDS011;10993;52.510;13.456;2023-07-22T05:04:24;3.57;;;1.60;;
21663;SDS011;10993;52.510;13.456;2023-07-22T05:09:25;3.17;;;1.57;;
21663;SDS011;10993;52.510;13.456;2023-07-22T05:14:26;3.00;;;1.70;;
21663;SDS011;10993;52.510;13.456;2023-07-22T05:19:26;3.10;;;1.87;;
21663;SDS011;10993;52.510;13.456;2023-07-22T05:24:28;4.40;;;1.93;;
21663;SDS011;10993;52.510;13.456;2023-07-22T05:29:28;7.07;;;2.17;;
21663;SDS011;10993;52.510;13.456;2023-07-22T05:34:28;5.50;;;2.47;;
21663;SDS011;10993;52.510;13.456;2023-07-22T05:39:30;3.25;;;1.98;;
21663;SDS011;10993;52.510;13.456;2023-07-22T05:44:30;6.93;;;2.40;;
21663;SDS011;10993;52.510;13.456;2023-07-22T05:49:31;4.37;;;2.50;;
21663;SDS011;10993;52.510;13.456;2023-07-22T05:54:32;5.30;;;2.63;;
21663;SDS011;10993;52.510;13.456;2023-07-22T05:59:33;4.57;;;2.80;;
21663;SDS011;10993;52.510;13.456;2023-07-22T06:04:36;8.02;;;2.97;;
21663;SDS011;10993;52.510;13.456;2023-07-22T06:09:37;4.82;;;3.40;;
21663;SDS011;10993;52.510;13.456;2023-07-22T06:14:38;5.35;;;3.30;;
21663;SDS011;10993;52.510;13.456;2023-07-22T06:19:38;5.47;;;3.33;;
21663;SDS011;10993;52.510;13.456;2023-07-22T06:24:40;5.27;;;2.83;;
21663;SDS011;10993;52.510;13.456;2023-07-22T06:29:40;5.95;;;3.28;;
21663;SDS011;10993;52.510;13.456;2023-07-22T06:34:40;5.82;;;3.17;;
21663;SDS011;10993;52.510;13.456;2023-07-22T06:39:42;5.93;;;2.70;;
21663;SDS011;10993;52.510;13.456;2023-07-22T06:44:43;6.55;;;2.63;;
21663;SDS011;10993;52.510;13.456;2023-07-22T06:49:43;5.60;;;2.58;;
21663;SDS011;10993;52.510;13.456;2023-07-22T06:54:45;6.43;;;2.75;;
21663;SDS011;10993;52.510;13.456;2023-07-22T06:59:46;6.15;;;2.80;;
21663;SDS011;10993;52.510;13.456;2023-07-22T07:04:46;5.68;;;2.75;;
21663;SDS011;10993;52.510;13.456;2023-07-22T07:09:48;4.18;;;2.20;;
21663;SDS011;10993;52.510;13.456;2023-07-22T07:14:49;5.95;;;2.72;;
21663;SDS011;10993;52.510;13.456;2023-07-22T07:19:50;3.80;;;1.75;;
21663;SDS011;10993;52.510;13.456;2023-07-22T07:24:51;4.47;;;2.08;;
21663;SDS011;10993;52.510;13.456;2023-07-22T07:29:52;4.88;;;2.10;;
21663;SDS011;10993;52.510;13.456;2023-07-22T07:34:52;5.10;;;2.30;;
21663;SDS011;10993;52.510;13.456;2023-07-22T07:39:54;4.28;;;1.88;;
21663;SDS011;10993;52.510;13.456;2023-07-22T07:44:59;8.15;;;4.28;;
21663;SDS011;10993;52.510;13.456;2023-07-22T07:49:59;6.85;;;3.20;;
21663;SDS011;10993;52.510;13.456;2023-07-22T07:55:02;7.10;;;2.80;;
21663;SDS011;10993;52.510;13.456;2023-07-22T08:00:03;7.38;;;3.80;;
21663;SDS011;10993;52.510;13.456;2023-07-22T08:05:05;4.65;;;2.42;;
21663;SDS011;10993;52.510;13.456;2023-07-22T08:10:07;5.35;;;2.90;;
21663;SDS011;10993;52.510;13.456;2023-07-22T08:15:09;5.25;;;2.30;;
21663;SDS011;10993;52.510;13.456;2023-07-22T08:20:10;7.00;;;2.35;;
21663;SDS011;10993;52.510;13.456;2023-07-22T08:25:12;6.75;;;2.80;;
21663;SDS011;10993;52.510;13.456;2023-07-22T08:30:15;6.05;;;2.80;;
21663;SDS011;10993;52.510;13.456;2023-07-22T08:35:16;9.27;;;2.88;;
21663;SDS011;10993;52.510;13.456;2023-07-22T08:40:19;5.63;;;2.92;;
21663;SDS011;10993;52.510;13.456;2023-07-22T08:45:19;6.80;;;2.78;;
21663;SDS011;10993;52.510;13.456;2023-07-22T08:50:21;5.63;;;2.42;;
21663;SDS011;10993;52.510;13.456;2023-07-22T08:55:25;4.47;;;2.45;;
21663;SDS011;10993;52.510;13.456;2023-07-22T09:00:26;7.82;;;3.08;;
21663;SDS011;10993;52.510;13.456;2023-07-22T09:05:28;7.45;;;3.03;;
21663;SDS011;10993;52.510;13.456;2023-07-22T09:10:30;7.25;;;4.03;;
21663;SDS011;10993;52.510;13.456;2023-07-22T09:15:34;5.13;;;2.55;;
21663;SDS011;10993;52.510;13.456;2023-07-22T09:20:36;6.90;;;3.05;;
21663;SDS011;10993;52.510;13.456;2023-07-22T09:25:38;5.10;;;2.75;;
21663;SDS011;10993;52.510;13.456;2023-07-22T09:30:40;5.28;;;2.20;;
21663;SDS011;10993;52.510;13.456;2023-07-22T09:35:43;5.07;;;2.53;;
21663;SDS011;10993;52.510;13.456;2023-07-22T09:40:46;5.65;;;3.55;;
21663;SDS011;10993;52.510;13.456;2023-07-22T09:45:47;6.28;;;2.72;;
21663;SDS011;10993;52.510;13.456;2023-07-22T09:50:55;4.22;;;2.30;;
21663;SDS011;10993;52.510;13.456;2023-07-22T09:55:57;7.15;;;3.78;;
21663;SDS011;10993;52.510;13.456;2023-07-22T10:01:03;6.15;;;2.47;;
21663;SDS011;10993;52.510;13.456;2023-07-22T10:06:05;3.90;;;2.05;;
21663;SDS011;10993;52.510;13.456;2023-07-22T10:11:09;3.22;;;1.60;;
21663;SDS011;10993;52.510;13.456;2023-07-22T10:16:11;3.55;;;1.85;;
21663;SDS011;10993;52.510;13.456;2023-07-22T10:21:12;5.57;;;2.60;;
21663;SDS011;10993;52.510;13.456;2023-07-22T10:26:14;6.32;;;2.30;;
21663;SDS011;10993;52.510;13.456;2023-07-22T10:31:16;5.50;;;2.20;;
21663;SDS011;10993;52.510;13.456;2023-07-22T10:36:21;4.93;;;2.40;;
21663;SDS011;10993;52.510;13.456;2023-07-22T10:41:31;5.60;;;2.53;;
21663;SDS011;10993;52.510;13.456;2023-07-22T10:46:33;5.20;;;2.72;;
21663;SDS011;10993;52.510;13.456;2023-07-22T10:51:35;3.38;;;2.08;;
21663;SDS011;10993;52.510;13.456;2023-07-22T10:56:40;4.40;;;2.15;;
21663;SDS011;10993;52.510;13.456;2023-07-22T11:01:43;5.05;;;2.90;;
21663;SDS011;10993;52.510;13.456;2023-07-22T11:06:53;6.90;;;2.83;;
21663;SDS011;10993;52.510;13.456;2023-07-22T11:11:57;5.25;;;2.50;;
21663;SDS011;10993;52.510;13.456;2023-07-22T11:16:59;6.15;;;3.10;;
21663;SDS011;10993;52.510;13.456;2023-07-22T11:22:01;7.30;;;3.10;;
21663;SDS011;10993;52.510;13.456;2023-07-22T11:27:04;5.47;;;2.65;;
21663;SDS011;10993;52.510;13.456;2023-07-22T11:32:05;6.50;;;3.10;;
21663;SDS011;10993;52.510;13.456;2023-07-22T11:37:07;5.57;;;2.45;;
21663;SDS011;10993;52.510;13.456;2023-07-22T11:42:09;5.35;;;2.92;;
21663;SDS011;10993;52.510;13.456;2023-07-22T11:47:10;5.22;;;2.83;;
21663;SDS011;10993;52.510;13.456;2023-07-22T11:52:15;4.95;;;2.63;;
21663;SDS011;10993;52.510;13.456;2023-07-22T11:57:22;4.00;;;2.50;;
21663;SDS011;10993;52.510;13.456;2023-07-22T12:02:24;5.72;;;3.70;;
21663;SDS011;10993;52.510;13.456;2023-07-22T12:07:26;6.07;;;3.03;;
21663;SDS011;10993;52.510;13.456;2023-07-22T12:12:32;4.38;;;2.50;;
21663;SDS011;10993;52.510;13.456;2023-07-22T12:17:43;4.30;;;2.50;;
21663;SDS011;10993;52.510;13.456;2023-07-22T12:22:47;4.97;;;2.58;;
21663;SDS011;10993;52.510;13.456;2023-07-22T12:27:52;4.82;;;2.55;;
21663;SDS011;10993;52.510;13.456;2023-07-22T12:32:52;4.47;;;2.60;;
21663;SDS011;10993;52.510;13.456;2023-07-22T12:37:52;6.30;;;2.90;;
21663;SDS011;10993;52.510;13.456;2023-07-22T12:42:54;5.30;;;3.22;;
21663;SDS011;10993;52.510;13.456;2023-07-22T12:47:55;5.97;;;3.50;;
21663;SDS011;10993;52.510;13.456;2023-07-22T12:52:55;10.20;;;5.07;;
21663;SDS011;10993;52.510;13.456;2023-07-22T12:57:57;6.37;;;3.67;;
21663;SDS011;10993;52.510;13.456;2023-07-22T13:02:57;7.13;;;4.20;;
21663;SDS011;10993;52.510;13.456;2023-07-22T13:07:57;6.47;;;3.97;;
21663;SDS011;10993;52.510;13.456;2023-07-22T13:13:02;17.65;;;9.00;;
21663;SDS011;10993;52.510;13.456;2023-07-22T13:18:02;6.88;;;3.55;;
21663;SDS011;10993;52.510;13.456;2023-07-22T13:23:03;6.40;;;3.80;;
21663;SDS011;10993;52.510;13.456;2023-07-22T13:28:05;6.13;;;3.30;;
21663;SDS011;10993;52.510;13.456;2023-07-22T13:33:05;9.50;;;5.30;;
21663;SDS011;10993;52.510;13.456;2023-07-22T13:38:06;5.77;;;3.57;;
21663;SDS011;10993;52.510;13.456;2023-07-22T13:43:07;8.98;;;4.55;;
21663;SDS011;10993;52.510;13.456;2023-07-22T13:48:09;6.15;;;3.63;;
21663;SDS011;10993;52.510;13.456;2023-07-22T13:53:11;4.80;;;2.92;;
21663;SDS011;10993;52.510;13.456;2023-07-22T13:58:13;6.85;;;3.60;;
21663;SDS011;10993;52.510;13.456;2023-07-22T14:03:13;5.95;;;3.45;;
21663;SDS011;10993;52.510;13.456;2023-07-22T14:08:14;7.47;;;4.28;;
21663;SDS011;10993;52.510;13.456;2023-07-22T14:13:16;4.00;;;2.60;;
21663;SDS011;10993;52.510;13.456;2023-07-22T14:18:16;4.72;;;3.10;;
21663;SDS011;10993;52.510;13.456;2023-07-22T14:23:18;5.97;;;3.10;;
21663;SDS011;10993;52.510;13.456;2023-07-22T14:28:19;5.05;;;3.00;;
21663;SDS011;10993;52.510;13.456;2023-07-22T14:33:20;7.95;;;2.88;;
21663;SDS011;10993;52.510;13.456;2023-07-22T14:38:20;6.63;;;4.05;;
21663;SDS011;10993;52.510;13.456;2023-07-22T14:43:22;5.43;;;2.85;;
21663;SDS011;10993;52.510;13.456;2023-07-22T14:48:23;7.90;;;3.05;;
21663;SDS011;10993;52.510;13.456;2023-07-22T14:53:23;4.57;;;3.00;;
21663;SDS011;10993;52.510;13.456;2023-07-22T14:58:25;6.45;;;3.15;;
21663;SDS011;10993;52.510;13.456;2023-07-22T15:03:25;5.22;;;2.60;;
21663;SDS011;10993;52.510;13.456;2023-07-22T15:08:26;4.38;;;2.53;;
21663;SDS011;10993;52.510;13.456;2023-07-22T15:13:27;5.33;;;3.50;;
21663;SDS011;10993;52.510;13.456;2023-07-22T15:18:28;6.32;;;4.03;;
21663;SDS011;10993;52.510;13.456;2023-07-22T15:23:28;4.53;;;2.88;;
21663;SDS011;10993;52.510;13.456;2023-07-22T15:28:30;4.63;;;3.03;;
21663;SDS011;10993;52.510;13.456;2023-07-22T15:33:30;6.60;;;2.90;;
21663;SDS011;10993;52.510;13.456;2023-07-22T15:38:31;5.00;;;3.23;;
21663;SDS011;10993;52.510;13.456;2023-07-22T15:43:32;4.45;;;2.97;;
21663;SDS011;10993;52.510;13.456;2023-07-22T15:48:33;5.43;;;3.00;;
21663;SDS011;10993;52.510;13.456;2023-07-22T15:53:33;5.15;;;3.20;;
21663;SDS011;10993;52.510;13.456;2023-07-22T15:58:35;6.10;;;3.20;;
21663;SDS011;10993;52.510;13.456;2023-07-22T16:03:36;6.53;;;3.13;;
21663;SDS011;10993;52.510;13.456;2023-07-22T16:08:37;6.10;;;3.53;;
21663;SDS011;10993;52.510;13.456;2023-07-22T16:13:39;5.80;;;3.58;;
21663;SDS011;10993;52.510;13.456;2023-07-22T16:18:39;7.47;;;4.25;;
21663;SDS011;10993;52.510;13.456;2023-07-22T16:23:40;5.68;;;3.42;;
21663;SDS011;10993;52.510;13.456;2023-07-22T16:28:41;4.35;;;2.70;;
21663;SDS011;10993;52.510;13.456;2023-07-22T16:33:42;5.05;;;3.25;;
21663;SDS011;10993;52.510;13.456;2023-07-22T16:38:42;7.25;;;5.03;;
21663;SDS011;10993;52.510;13.456;2023-07-22T16:43:44;6.70;;;3.95;;
21663;SDS011;10993;52.510;13.456;2023-07-22T16:48:44;7.30;;;3.58;;
21663;SDS011;10993;52.510;13.456;2023-07-22T16:53:45;4.95;;;3.05;;
21663;SDS011;10993;52.510;13.456;2023-07-22T16:58:49;5.20;;;3.00;;
21663;SDS011;10993;52.510;13.456;2023-07-22T17:03:49;4.38;;;2.90;;
21663;SDS011;10993;52.510;13.456;2023-07-22T17:08:53;5.03;;;2.70;;
21663;SDS011;10993;52.510;13.456;2023-07-22T17:13:54;5.03;;;2.80;;
21663;SDS011;10993;52.510;13.456;2023-07-22T17:18:55;8.13;;;4.55;;
21663;SDS011;10993;52.510;13.456;2023-07-22T17:23:55;4.33;;;2.93;;
21663;SDS011;10993;52.510;13.456;2023-07-22T17:28:57;5.72;;;3.42;;
21663;SDS011;10993;52.510;13.456;2023-07-22T17:33:57;6.40;;;3.22;;
21663;SDS011;10993;52.510;13.456;2023-07-22T17:38:58;6.68;;;4.45;;
21663;SDS011;10993;52.510;13.456;2023-07-22T17:43:59;6.30;;;4.05;;
21663;SDS011;10993;52.510;13.456;2023-07-22T17:49:01;5.50;;;2.97;;
21663;SDS011;10993;52.510;13.456;2023-07-22T17:54:01;5.05;;;2.90;;
21663;SDS011;10993;52.510;13.456;2023-07-22T17:59:03;5.13;;;2.97;;
21663;SDS011;10993;52.510;13.456;2023-07-22T18:04:03;4.85;;;2.70;;
21663;SDS011;10993;52.510;13.456;2023-07-22T18:09:04;4.30;;;2.70;;
21663;SDS011;10993;52.510;13.456;2023-07-22T18:14:05;5.65;;;3.30;;
21663;SDS011;10993;52.510;13.456;2023-07-22T18:19:06;6.57;;;3.55;;
21663;SDS011;10993;52.510;13.456;2023-07-22T18:24:07;5.88;;;3.22;;
21663;SDS011;10993;52.510;13.456;2023-07-22T18:29:13;5.80;;;2.78;;
21663;SDS011;10993;52.510;13.456;2023-07-22T18:34:13;6.03;;;3.38;;
21663;SDS011;10993;52.510;13.456;2023-07-22T18:39:16;5.57;;;3.15;;
21663;SDS011;10993;52.510;13.456;2023-07-22T18:44:18;6.72;;;4.10;;
21663;SDS011;10993;52.510;13.456;2023-07-22T18:49:18;5.55;;;3.88;;
21663;SDS011;10993;52.510;13.456;2023-07-22T18:54:19;7.38;;;4.18;;
21663;SDS011;10993;52.510;13.456;2023-07-22T18:59:21;7.90;;;3.72;;
21663;SDS011;10993;52.510;13.456;2023-07-22T19:04:24;6.32;;;3.40;;
21663;SDS011;10993;52.510;13.456;2023-07-22T19:09:24;9.45;;;4.82;;
21663;SDS011;10993;52.510;13.456;2023-07-22T19:14:26;9.40;;;5.90;;
21663;SDS011;10993;52.510;13.456;2023-07-22T19:19:27;8.13;;;4.90;;
21663;SDS011;10993;52.510;13.456;2023-07-22T19:24:28;8.07;;;4.20;;
21663;SDS011;10993;52.510;13.456;2023-07-22T19:29:30;6.50;;;3.50;;
21663;SDS011;10993;52.510;13.456;2023-07-22T19:34:30;7.40;;;3.80;;
21663;SDS011;10993;52.510;13.456;2023-07-22T19:39:31;8.23;;;4.68;;
21663;SDS011;10993;52.510;13.456;2023-07-22T19:44:33;7.50;;;3.85;;
21663;SDS011;10993;52.510;13.456;2023-07-22T19:49:34;7.05;;;3.60;;
21663;SDS011;10993;52.510;13.456;2023-07-22T19:54:34;6.83;;;3.80;;
21663;SDS011;10993;52.510;13.456;2023-07-22T19:59:36;7.65;;;4.68;;
21663;SDS011;10993;52.510;13.456;2023-07-22T20:04:36;8.85;;;5.22;;
21663;SDS011;10993;52.510;13.456;2023-07-22T20:09:37;9.07;;;4.90;;
21663;SDS011;10993;52.510;13.456;2023-07-22T20:14:38;6.45;;;3.83;;
21663;SDS011;10993;52.510;13.456;2023-07-22T20:19:39;9.73;;;4.68;;
21663;SDS011;10993;52.510;13.456;2023-07-22T20:24:39;9.63;;;4.78;;
21663;SDS011;10993;52.510;13.456;2023-07-22T20:29:41;10.15;;;4.50;;
21663;SDS011;10993;52.510;13.456;2023-07-22T20:34:41;7.97;;;4.18;;
21663;SDS011;10993;52.510;13.456;2023-07-22T20:39:42;7.07;;;4.28;;
21663;SDS011;10993;52.510;13.456;2023-07-22T20:44:44;7.70;;;4.13;;
21663;SDS011;10993;52.510;13.456;2023-07-22T20:49:44;6.55;;;3.90;;
21663;SDS011;10993;52.510;13.456;2023-07-22T20:54:44;10.05;;;6.45;;
21663;SDS011;10993;52.510;13.456;2023-07-22T20:59:47;7.63;;;4.68;;
21663;SDS011;10993;52.510;13.456;2023-07-22T21:04:50;7.75;;;4.93;;
21663;SDS011;10993;52.510;13.456;2023-07-22T21:09:51;7.82;;;4.22;;
21663;SDS011;10993;52.510;13.456;2023-07-22T21:14:52;10.13;;;4.75;;
21663;SDS011;10993;52.510;13.456;2023-07-22T21:19:53;7.25;;;4.28;;
21663;SDS011;10993;52.510;13.456;2023-07-22T21:24:53;7.55;;;4.63;;
21663;SDS011;10993;52.510;13.456;2023-07-22T21:29:55;6.60;;;3.95;;
21663;SDS011;10993;52.510;13.456;2023-07-22T21:34:56;8.50;;;4.60;;
21663;SDS011;10993;52.510;13.456;2023-07-22T21:39:56;6.60;;;4.03;;
21663;SDS011;10993;52.510;13.456;2023-07-22T21:44:58;8.02;;;3.95;;
21663;SDS011;10993;52.510;13.456;2023-07-22T21:49:58;7.82;;;4.50;;
21663;SDS011;10993;52.510;13.456;2023-07-22T21:54:59;8.10;;;4.07;;
21663;SDS011;10993;52.510;13.456;2023-07-22T22:00:00;9.40;;;5.47;;
21663;SDS011;10993;52.510;13.456;2023-07-22T22:05:01;8.30;;;4.28;;
21663;SDS011;10993;52.510;13.456;2023-07-22T22:10:01;10.38;;;4.25;;
21663;SDS011;10993;52.510;13.456;2023-07-22T22:15:05;6.55;;;3.92;;
21663;SDS011;10993;52.510;13.456;2023-07-22T22:20:06;9.20;;;4.50;;
21663;SDS011;10993;52.510;13.456;2023-07-22T22:25:08;6.95;;;3.97;;
21663;SDS011;10993;52.510;13.456;2023-07-22T22:30:10;9.25;;;4.55;;
21663;SDS011;10993;52.510;13.456;2023-07-22T22:35:10;7.90;;;4.15;;
21663;SDS011;10993;52.510;13.456;2023-07-22T22:40:11;8.00;;;4.55;;
21663;SDS011;10993;52.510;13.456;2023-07-22T22:45:12;7.10;;;3.80;;
21663;SDS011;10993;52.510;13.456;2023-07-22T22:50:13;6.15;;;3.97;;
21663;SDS011;10993;52.510;13.456;2023-07-22T22:55:13;10.50;;;5.43;;
21663;SDS011;10993;52.510;13.456;2023-07-22T23:00:15;6.70;;;3.97;;
21663;SDS011;10993;52.510;13.456;2023-07-22T23:05:16;7.30;;;4.20;;
21663;SDS011;10993;52.510;13.456;2023-07-22T23:10:16;6.75;;;4.18;;
21663;SDS011;10993;52.510;13.456;2023-07-22T23:15:18;8.20;;;4.85;;
21663;SDS011;10993;52.510;13.456;2023-07-22T23:20:19;7.68;;;4.60;;
21663;SDS011;10993;52.510;13.456;2023-07-22T23:25:19;6.95;;;4.43;;
21663;SDS011;10993;52.510;13.456;2023-07-22T23:30:21;7.82;;;4.18;;
21663;SDS011;10993;52.510;13.456;2023-07-22T23:35:22;5.82;;;3.70;;
21663;SDS011;10993;52.510;13.456;2023-07-22T23:40:22;7.50;;;3.80;;
21663;SDS011;10993;52.510;13.456;2023-07-22T23:45:24;8.48;;;4.63;;
21663;SDS011;10993;52.510;13.456;2023-07-22T23:50:24;7.65;;;4.25;;
21663;SDS011;10993;52.510;13.456;2023-07-22T23:55:24;6.23;;;3.87;;
